Time;durP1;ratioP1;P1;durP2;ratioP2;P2;SDS_P1;SDS_P2;PMS_P1;PMS_P2;Temp;Humidity;BMP_temperature;BMP_pressure;BME280_temperature;BME280_humidity;BME280_pressure;Samples;Min_cycle;Max_cycle;Signal;HPM_P1;HPM_P2
2024/03/07 00:01:07;;;;;;;21.00;10.88;;;9.30;99.90;;;;;;7384917;19;20018;-81
2024/03/07 00:03:36;;;;;;;23.20;11.07;;;9.30;99.90;;;;;;7384490;19;20014;-82
2024/03/07 00:06:05;;;;;;;33.97;17.17;;;9.30;99.90;;;;;;7407778;19;20397;-82
2024/03/07 00:08:36;;;;;;;24.00;13.77;;;9.30;99.90;;;;;;7383069;19;20037;-81
2024/03/07 00:11:07;;;;;;;;;;;9.30;99.90;;;;;;7384649;19;20016;-83
2024/03/07 00:13:36;;;;;;;25.92;12.48;;;9.30;99.90;;;;;;7386659;19;19911;-82
2024/03/07 00:16:05;;;;;;;28.63;13.13;;;9.30;99.90;;;;;;7386461;19;20409;-82
2024/03/07 00:18:34;;;;;;;25.40;11.43;;;9.20;99.90;;;;;;7384763;19;20071;-82
2024/03/07 00:21:03;;;;;;;23.75;12.02;;;9.20;99.90;;;;;;7408420;19;20007;-82
2024/03/07 00:23:32;;;;;;;21.23;10.95;;;9.10;99.90;;;;;;7401095;19;20033;-81
2024/03/07 00:26:03;;;;;;;22.05;10.93;;;9.10;99.90;;;;;;7404558;19;20026;-82
2024/03/07 00:28:35;;;;;;;;;;;9.10;99.90;;;;;;7404892;19;20014;-81
2024/03/07 00:31:03;;;;;;;20.98;11.38;;;9.10;99.90;;;;;;7408653;19;19915;-82
2024/03/07 00:33:32;;;;;;;32.78;13.98;;;9.10;99.90;;;;;;7405186;19;20006;-79
2024/03/07 00:36:01;;;;;;;30.83;12.82;;;9.10;99.90;;;;;;7426679;19;20026;-80
2024/03/07 00:38:30;;;;;;;25.77;13.20;;;9.10;99.90;;;;;;7402774;19;20018;-80
2024/03/07 00:40:59;;;;;;;38.15;13.70;;;9.10;99.90;;;;;;7382856;19;20244;-81
2024/03/07 00:43:30;;;;;;;30.50;12.77;;;9.10;99.90;;;;;;7384397;19;20031;-82
2024/03/07 00:45:59;;;;;;;28.10;11.98;;;9.00;99.90;;;;;;7387298;19;20010;-82
2024/03/07 00:48:29;;;;;;;30.38;12.60;;;9.00;99.90;;;;;;7411635;19;20042;-82
2024/03/07 00:50:59;;;;;;;27.17;12.57;;;9.00;99.90;;;;;;7395774;19;20010;-81
2024/03/07 00:53:28;;;;;;;24.75;11.90;;;9.00;99.90;;;;;;7388717;19;20026;-81
2024/03/07 00:55:56;;;;;;;22.35;11.27;;;9.00;99.90;;;;;;7387207;19;20011;-80
2024/03/07 00:58:27;;;;;;;24.70;12.25;;;8.90;99.90;;;;;;7385026;19;20010;-80
2024/03/07 01:01:00;;;;;;;27.25;10.70;;;8.90;99.90;;;;;;7386895;19;20000;-79
2024/03/07 01:03:28;;;;;;;23.35;11.23;;;8.90;99.90;;;;;;7408481;19;20009;-81
2024/03/07 01:05:57;;;;;;;22.13;11.10;;;8.90;99.90;;;;;;7388929;19;20019;-81
2024/03/07 01:08:27;;;;;;;32.05;10.80;;;8.90;99.90;;;;;;7390423;19;20011;-79
2024/03/07 01:10:56;;;;;;;22.65;10.70;;;8.90;99.90;;;;;;7389449;19;20559;-81
2024/03/07 01:13:24;;;;;;;23.75;10.75;;;8.90;99.90;;;;;;7388231;19;20023;-81
2024/03/07 01:15:54;;;;;;;20.95;10.32;;;8.90;99.90;;;;;;7395495;19;20010;-82
2024/03/07 01:18:25;;;;;;;22.58;11.50;;;8.90;99.90;;;;;;7415511;19;20007;-81
2024/03/07 01:20:54;;;;;;;21.08;10.60;;;8.80;99.90;;;;;;7391203;19;20015;-81
2024/03/07 01:23:23;;;;;;;21.42;10.82;;;8.80;99.90;;;;;;7389381;19;20015;-81
2024/03/07 01:25:52;;;;;;;28.17;10.30;;;8.80;99.90;;;;;;7387937;19;20006;-81
2024/03/07 01:28:22;;;;;;;26.17;10.38;;;8.70;99.90;;;;;;7385508;19;20042;-81
2024/03/07 01:30:51;;;;;;;24.45;10.27;;;8.80;99.90;;;;;;7385070;19;20009;-81
2024/03/07 01:33:20;;;;;;;19.95;10.20;;;8.70;99.90;;;;;;7406749;19;20010;-81
2024/03/07 01:35:51;;;;;;;23.85;10.23;;;8.80;99.90;;;;;;7386095;19;20007;-81
2024/03/07 01:38:20;;;;;;;18.45;10.65;;;8.70;99.90;;;;;;7387148;19;20014;-82
2024/03/07 01:40:49;;;;;;;19.92;9.70;;;8.70;99.90;;;;;;7385800;19;20741;-81
2024/03/07 01:43:18;;;;;;;20.63;10.15;;;8.70;99.90;;;;;;7388420;19;20003;-82
2024/03/07 01:45:49;;;;;;;21.15;9.77;;;8.70;99.90;;;;;;7389827;19;20010;-82
2024/03/07 01:48:28;;;;;;;18.27;9.93;;;8.70;99.90;;;;;;7415679;19;20006;-81
2024/03/07 01:51:00;;;;;;;15.10;9.48;;;8.60;99.90;;;;;;7387070;19;20010;-81
2024/03/07 01:53:31;;;;;;;23.00;10.35;;;8.60;99.90;;;;;;7386405;19;20016;-80
2024/03/07 01:56:02;;;;;;;21.65;9.70;;;8.60;99.90;;;;;;7386096;19;20006;-81
2024/03/07 01:58:32;;;;;;;23.80;10.63;;;8.60;99.90;;;;;;7386075;19;20010;-80
2024/03/07 02:01:01;;;;;;;17.75;9.73;;;8.60;99.90;;;;;;7385258;19;20019;-82
2024/03/07 02:03:30;;;;;;;16.95;8.10;;;8.60;99.90;;;;;;7411769;19;20114;-80
2024/03/07 02:06:02;;;;;;;28.00;10.77;;;8.50;99.90;;;;;;7388316;19;20014;-81
2024/03/07 02:08:33;;;;;;;18.83;9.32;;;8.50;99.90;;;;;;7385069;19;20017;-81
2024/03/07 02:11:02;;;;;;;16.25;9.63;;;8.50;99.90;;;;;;7384953;19;20046;-81
2024/03/07 02:13:31;;;;;;;24.33;9.93;;;8.60;99.90;;;;;;7384904;19;20018;-81
2024/03/07 02:16:00;;;;;;;21.05;9.40;;;8.50;99.90;;;;;;7395286;19;20082;-81
2024/03/07 02:18:29;;;;;;;26.02;10.88;;;8.50;99.90;;;;;;7410599;19;20010;-81
2024/03/07 02:21:00;;;;;;;24.00;10.40;;;8.50;99.90;;;;;;7384479;19;20002;-81
2024/03/07 02:23:29;;;;;;;17.98;9.63;;;8.40;99.90;;;;;;7384823;19;20233;-82
2024/03/07 02:25:58;;;;;;;23.52;10.13;;;8.50;99.90;;;;;;7384592;19;20055;-81
2024/03/07 02:28:27;;;;;;;23.25;10.80;;;8.40;99.90;;;;;;7383989;19;19999;-81
2024/03/07 02:30:56;;;;;;;20.40;10.35;;;8.50;99.90;;;;;;7384934;19;20007;-82
2024/03/07 02:33:25;;;;;;;23.52;10.30;;;8.40;99.90;;;;;;7406140;19;20023;-81
2024/03/07 02:35:54;;;;;;;17.80;9.90;;;8.40;99.90;;;;;;7384995;19;20018;-82
2024/03/07 02:38:27;;;;;;;18.58;9.43;;;8.40;99.90;;;;;;7386786;19;20232;-84
2024/03/07 02:40:58;;;;;;;20.55;10.05;;;8.40;99.90;;;;;;7384337;19;20119;-81
2024/03/07 02:43:27;;;;;;;15.73;9.60;;;8.40;99.90;;;;;;7392912;19;20006;-82
2024/03/07 02:45:56;;;;;;;28.45;10.25;;;8.30;99.90;;;;;;7388613;19;20030;-82
2024/03/07 02:48:25;;;;;;;16.60;8.85;;;8.30;99.90;;;;;;7405998;19;20011;-82
2024/03/07 02:50:54;;;;;;;20.58;9.30;;;8.30;99.90;;;;;;7384925;19;20014;-82
2024/03/07 02:53:25;;;;;;;19.48;9.70;;;8.30;99.90;;;;;;7385552;19;20015;-83
2024/03/07 02:55:54;;;;;;;17.65;9.35;;;8.30;99.90;;;;;;7388224;19;20018;-82
2024/03/07 02:58:24;;;;;;;18.15;9.20;;;8.20;99.90;;;;;;7388952;19;20007;-82
2024/03/07 03:01:01;;;;;;;16.83;8.50;;;8.20;99.90;;;;;;7387032;19;20090;-82
2024/03/07 03:03:31;;;;;;;17.33;8.50;;;8.20;99.90;;;;;;7405420;19;20024;-82
2024/03/07 03:06:00;;;;;;;19.27;9.52;;;8.20;99.90;;;;;;7383368;19;20360;-81
2024/03/07 03:08:31;;;;;;;16.38;9.27;;;8.30;99.90;;;;;;7385686;19;20046;-81
2024/03/07 03:11:00;;;;;;;;;;;8.30;99.90;;;;;;7391268;19;20011;-82
2024/03/07 03:13:29;;;;;;;20.30;9.05;;;8.20;99.90;;;;;;7391640;19;19914;-81
2024/03/07 03:15:58;;;;;;;36.42;9.73;;;8.20;99.90;;;;;;7387728;19;20020;-82
2024/03/07 03:18:27;;;;;;;22.58;9.20;;;8.20;99.90;;;;;;7409905;19;20015;-82
2024/03/07 03:20:56;;;;;;;16.00;8.45;;;8.20;99.90;;;;;;7398970;19;20013;-79
2024/03/07 03:23:25;;;;;;;22.40;9.07;;;8.10;99.90;;;;;;7402462;19;20021;-79
2024/03/07 03:25:56;;;;;;;20.08;9.30;;;8.10;99.90;;;;;;7401845;19;20006;-79
2024/03/07 03:28:25;;;;;;;18.80;8.98;;;8.00;99.90;;;;;;7402054;19;20518;-78
2024/03/07 03:30:54;;;;;;;17.98;8.55;;;8.10;99.90;;;;;;7402069;19;20014;-80
2024/03/07 03:33:23;;;;;;;16.73;8.43;;;8.00;99.90;;;;;;7413173;19;19999;-81
2024/03/07 03:35:52;;;;;;;19.67;9.07;;;8.00;99.90;;;;;;7381185;19;20074;-81
2024/03/07 03:38:21;;;;;;;19.60;8.77;;;8.00;99.90;;;;;;7384178;19;20018;-81
2024/03/07 03:40:50;;;;;;;18.52;8.70;;;8.10;99.90;;;;;;7388829;19;20237;-80
2024/03/07 03:43:21;;;;;;;21.20;9.60;;;8.10;99.90;;;;;;7382978;19;20007;-80
2024/03/07 03:45:50;;;;;;;;;;;8.00;99.90;;;;;;7384676;19;20019;-80
2024/03/07 03:48:19;;;;;;;18.48;8.48;;;8.00;99.90;;;;;;7400473;19;19917;-81
2024/03/07 03:50:48;;;;;;;18.92;8.88;;;7.90;99.90;;;;;;7383728;19;20016;-80
2024/03/07 03:53:17;;;;;;;17.65;8.80;;;7.90;99.90;;;;;;7384301;19;20017;-81
2024/03/07 03:55:46;;;;;;;18.42;8.52;;;7.90;99.90;;;;;;7383685;19;20015;-80
2024/03/07 03:58:15;;;;;;;20.83;8.38;;;7.90;99.90;;;;;;7381295;19;20039;-80
2024/03/07 04:00:46;;;;;;;14.95;7.97;;;7.90;99.90;;;;;;7402197;19;20019;-80
2024/03/07 04:03:15;;;;;;;15.48;9.05;;;7.90;99.90;;;;;;7380425;19;20006;-80
2024/03/07 04:05:43;;;;;;;18.83;8.55;;;7.90;99.90;;;;;;7381765;19;20014;-81
2024/03/07 04:08:12;;;;;;;14.55;8.35;;;7.90;99.90;;;;;;7391222;19;20015;-81
2024/03/07 04:10:41;;;;;;;16.63;9.05;;;7.80;99.90;;;;;;7383141;19;20006;-82
2024/03/07 04:13:10;;;;;;;22.40;8.90;;;7.90;99.90;;;;;;7382361;19;19999;-80
2024/03/07 04:15:39;;;;;;;19.88;9.20;;;7.90;99.90;;;;;;7405991;19;20051;-81
2024/03/07 04:18:10;;;;;;;17.67;8.35;;;7.90;99.90;;;;;;7381784;19;20388;-81
2024/03/07 04:20:39;;;;;;;;;;;7.80;99.90;;;;;;7386884;19;20010;-81
2024/03/07 04:23:08;;;;;;;19.30;8.50;;;7.80;99.90;;;;;;7386710;19;19939;-81
2024/03/07 04:25:36;;;;;;;18.77;8.95;;;7.80;99.90;;;;;;7387496;19;20078;-82
2024/03/07 04:28:05;;;;;;;20.45;8.13;;;7.80;99.90;;;;;;7389191;19;20009;-80
2024/03/07 04:30:34;;;;;;;30.38;8.27;;;7.80;99.90;;;;;;7407046;19;20003;-80
2024/03/07 04:33:04;;;;;;;13.23;7.88;;;7.90;99.90;;;;;;7386982;19;20003;-80
2024/03/07 04:35:35;;;;;;;22.58;7.63;;;7.80;99.90;;;;;;7393082;19;20077;-81
2024/03/07 04:38:09;;;;;;;;;;;7.80;99.90;;;;;;7392265;19;20015;-80
2024/03/07 04:40:38;;;;;;;17.40;7.47;;;7.80;99.90;;;;;;7384252;19;19911;-80
2024/03/07 04:43:07;;;;;;;19.95;7.38;;;7.70;99.90;;;;;;7387156;19;20077;-79
2024/03/07 04:45:36;;;;;;;15.15;7.50;;;7.70;99.90;;;;;;7410080;19;20066;-80
2024/03/07 04:48:05;;;;;;;19.60;8.65;;;7.70;99.90;;;;;;7387445;19;20007;-80
2024/03/07 04:50:37;;;;;;;18.80;8.65;;;7.70;99.90;;;;;;7387726;19;20080;-80
2024/03/07 04:53:05;;;;;;;;;;;7.60;99.90;;;;;;7388004;19;20015;-80
2024/03/07 04:55:34;;;;;;;15.65;7.95;;;7.70;99.90;;;;;;7387155;19;19928;-79
2024/03/07 04:58:03;;;;;;;16.65;8.25;;;7.60;99.90;;;;;;7387088;19;20011;-79
2024/03/07 05:00:32;;;;;;;17.75;8.73;;;7.70;99.90;;;;;;7405810;19;20043;-80
2024/03/07 05:03:00;;;;;;;18.90;8.95;;;7.60;99.90;;;;;;7389276;19;20039;-80
2024/03/07 05:05:29;;;;;;;17.08;8.55;;;7.60;99.90;;;;;;7392542;19;20016;-80
2024/03/07 05:08:00;;;;;;;17.25;9.07;;;7.60;99.90;;;;;;7385656;19;20070;-82
2024/03/07 05:10:30;;;;;;;;;;;7.60;99.90;;;;;;7388052;19;20007;-82
2024/03/07 05:13:00;;;;;;;20.05;8.77;;;7.60;99.90;;;;;;7386516;19;19914;-81
2024/03/07 05:15:29;;;;;;;21.63;8.18;;;7.60;99.90;;;;;;7405014;19;20007;-81
2024/03/07 05:17:58;;;;;;;18.13;8.43;;;7.50;99.90;;;;;;7386524;19;20002;-81
2024/03/07 05:20:28;;;;;;;18.48;9.02;;;7.60;99.90;;;;;;7385739;19;20002;-82
2024/03/07 05:22:59;;;;;;;19.83;9.30;;;7.60;99.90;;;;;;7386728;19;20019;-79
2024/03/07 05:25:28;;;;;;;;;;;7.50;99.90;;;;;;7386672;19;20056;-80
2024/03/07 05:27:56;;;;;;;17.92;8.23;;;7.60;99.90;;;;;;7387532;19;19944;-79
2024/03/07 05:30:25;;;;;;;24.38;9.48;;;7.60;99.90;;;;;;7410039;19;20011;-80
2024/03/07 05:32:54;;;;;;;23.40;8.45;;;7.50;99.90;;;;;;7388523;19;20014;-82
2024/03/07 05:35:23;;;;;;;16.67;8.07;;;7.50;99.90;;;;;;7388454;19;20010;-82
2024/03/07 05:37:52;;;;;;;16.75;8.90;;;7.50;99.90;;;;;;7388508;19;20014;-83
2024/03/07 05:40:24;;;;;;;18.17;8.60;;;7.50;99.90;;;;;;7392655;19;20227;-83
2024/03/07 05:42:53;;;;;;;18.77;8.27;;;7.50;99.90;;;;;;7399008;19;20230;-82
2024/03/07 05:45:23;;;;;;;17.67;8.80;;;7.50;99.90;;;;;;7408735;19;20010;-83
2024/03/07 05:47:52;;;;;;;24.85;9.15;;;7.50;99.90;;;;;;7388361;19;20121;-82
2024/03/07 05:50:21;;;;;;;23.58;9.32;;;7.50;99.90;;;;;;7391362;19;20007;-82
2024/03/07 05:52:50;;;;;;;14.60;8.45;;;7.50;99.90;;;;;;7389875;19;20011;-82
2024/03/07 05:55:21;;;;;;;19.67;8.50;;;7.50;99.90;;;;;;7388111;19;20014;-81
2024/03/07 05:57:52;;;;;;;13.98;7.90;;;7.40;99.90;;;;;;7410009;19;20003;-81
2024/03/07 06:00:26;;;;;;;;;;;7.40;99.90;;;;;;7391802;19;20023;-81
2024/03/07 06:02:56;;;;;;;20.75;8.27;;;7.40;99.90;;;;;;7391106;19;19985;-81
2024/03/07 06:05:24;;;;;;;18.60;8.52;;;7.40;99.90;;;;;;7387766;19;20399;-82
2024/03/07 06:07:53;;;;;;;18.33;8.25;;;7.40;99.90;;;;;;7388338;19;20011;-82
2024/03/07 06:10:23;;;;;;;16.33;8.23;;;7.40;99.90;;;;;;7389737;19;20006;-82
2024/03/07 06:12:55;;;;;;;17.80;8.97;;;7.40;99.90;;;;;;7409617;19;20111;-82
2024/03/07 06:15:24;;;;;;;18.65;7.80;;;7.40;99.90;;;;;;7406676;19;20250;-82
2024/03/07 06:17:53;;;;;;;23.38;9.32;;;7.40;99.90;;;;;;7408705;19;20027;-82
2024/03/07 06:20:25;;;;;;;24.38;9.20;;;7.40;99.90;;;;;;7408390;19;20011;-82
2024/03/07 06:22:54;;;;;;;16.55;8.60;;;7.30;99.90;;;;;;7407995;19;20020;-81
2024/03/07 06:25:33;;;;;;;21.45;9.52;;;7.30;99.90;;;;;;7409119;19;19999;-81
2024/03/07 06:28:11;;;;;;;17.27;8.95;;;7.30;99.90;;;;;;7406795;19;20010;-81
2024/03/07 06:30:41;;;;;;;21.75;8.65;;;7.30;99.90;;;;;;7421418;19;20022;-80
2024/03/07 06:33:10;;;;;;;16.80;8.48;;;7.30;99.90;;;;;;7386587;19;20015;-81
2024/03/07 06:35:39;;;;;;;17.30;8.43;;;7.30;99.90;;;;;;7385145;19;20002;-82
2024/03/07 06:38:08;;;;;;;25.67;10.13;;;7.40;99.90;;;;;;7383424;19;19999;-80
2024/03/07 06:40:37;;;;;;;16.40;8.93;;;7.40;99.90;;;;;;7382106;19;20027;-81
2024/03/07 06:43:10;;;;;;;23.85;9.02;;;7.40;99.90;;;;;;7381876;19;20104;-81
2024/03/07 06:45:41;;;;;;;20.85;9.68;;;7.40;99.90;;;;;;7404570;19;20073;-81
2024/03/07 06:48:10;;;;;;;20.90;9.35;;;7.40;99.90;;;;;;7384269;19;20011;-79
2024/03/07 06:50:40;;;;;;;21.60;9.27;;;7.40;99.90;;;;;;7387851;19;20121;-81
2024/03/07 06:53:09;;;;;;;143.77;16.58;;;7.40;99.90;;;;;;7382561;19;20123;-81
2024/03/07 06:55:40;;;;;;;26.83;9.68;;;7.40;99.90;;;;;;7384525;19;20034;-81
2024/03/07 06:58:11;;;;;;;25.45;9.45;;;7.50;99.90;;;;;;7388887;19;20025;-82
2024/03/07 07:00:40;;;;;;;;;;;7.50;99.90;;;;;;7405638;19;20014;-80
2024/03/07 07:03:10;;;;;;;13.93;6.93;;;7.60;99.90;;;;;;7380971;19;19998;-81
2024/03/07 07:05:38;;;;;;;12.50;7.63;;;7.50;99.90;;;;;;7382531;19;20014;-81
2024/03/07 07:08:08;;;;;;;20.02;9.07;;;7.50;99.90;;;;;;7381388;19;20365;-80
2024/03/07 07:10:38;;;;;;;19.23;8.90;;;7.50;99.90;;;;;;7380691;19;20360;-80
2024/03/07 07:13:07;;;;;;;16.60;8.95;;;7.60;99.90;;;;;;7381440;19;20018;-80
2024/03/07 07:15:39;;;;;;;17.23;8.60;;;7.60;99.90;;;;;;7402906;19;20014;-80
2024/03/07 07:18:08;;;;;;;19.35;8.93;;;7.60;99.90;;;;;;7381336;19;20074;-80
2024/03/07 07:20:37;;;;;;;15.73;9.05;;;7.70;99.90;;;;;;7380942;19;20019;-80
2024/03/07 07:23:06;;;;;;;19.40;9.15;;;7.80;99.90;;;;;;7380186;19;20014;-80
2024/03/07 07:25:35;;;;;;;26.60;8.82;;;7.80;99.90;;;;;;7386949;19;20007;-82
2024/03/07 07:28:05;;;;;;;16.27;8.93;;;7.80;99.90;;;;;;7384167;19;20019;-81
2024/03/07 07:30:34;;;;;;;19.52;8.93;;;7.90;99.90;;;;;;7404785;19;20014;-81
2024/03/07 07:33:06;;;;;;;22.15;10.52;;;7.90;99.90;;;;;;7385514;19;20030;-80
2024/03/07 07:35:35;;;;;;;21.38;8.95;;;7.90;99.90;;;;;;7381348;19;20012;-81
2024/03/07 07:38:06;;;;;;;23.63;9.68;;;8.00;99.90;;;;;;7381244;19;20011;-80
2024/03/07 07:40:35;;;;;;;;;;;8.10;99.90;;;;;;7382144;19;20007;-81
2024/03/07 07:43:04;;;;;;;18.70;9.18;;;8.20;99.90;;;;;;7383878;19;19915;-80
2024/03/07 07:45:35;;;;;;;28.73;8.65;;;8.20;99.90;;;;;;7404580;19;20018;-80
2024/03/07 07:48:07;;;;;;;27.05;9.35;;;8.20;99.90;;;;;;7381663;19;20010;-80
2024/03/07 07:50:36;;;;;;;17.92;9.15;;;8.30;99.90;;;;;;7380137;19;20006;-80
2024/03/07 07:53:08;;;;;;;24.73;10.32;;;8.30;99.90;;;;;;7389008;19;20011;-81
2024/03/07 07:55:38;;;;;;;25.80;11.18;;;8.40;99.90;;;;;;7392301;19;20029;-81
2024/03/07 07:58:07;;;;;;;23.80;10.65;;;8.40;99.90;;;;;;7386726;19;20003;-81
2024/03/07 08:00:36;;;;;;;22.88;10.05;;;8.50;99.90;;;;;;7410565;19;20011;-82
2024/03/07 08:03:09;;;;;;;25.48;11.25;;;8.60;99.90;;;;;;7387519;19;20026;-82
2024/03/07 08:05:39;;;;;;;23.73;9.70;;;8.60;99.90;;;;;;7389522;19;20011;-81
2024/03/07 08:08:11;;;;;;;23.20;11.00;;;8.70;99.90;;;;;;7388096;19;20007;-80
2024/03/07 08:10:45;;;;;;;24.90;10.68;;;8.70;99.90;;;;;;7388083;19;20066;-81
2024/03/07 08:13:14;;;;;;;24.25;11.20;;;8.80;99.90;;;;;;7385335;19;20005;-78
2024/03/07 08:15:43;;;;;;;32.53;11.32;;;8.90;99.90;;;;;;7408622;19;20095;-77
2024/03/07 08:18:14;;;;;;;33.33;11.52;;;9.00;99.90;;;;;;7386385;19;20012;-78
2024/03/07 08:20:43;;;;;;;22.60;11.98;;;9.00;99.90;;;;;;7390382;19;20015;-77
2024/03/07 08:23:12;;;;;;;19.83;11.25;;;9.10;99.90;;;;;;7392762;19;20020;-76
2024/03/07 08:25:41;;;;;;;31.38;12.57;;;9.20;99.90;;;;;;7385616;19;20739;-79
2024/03/07 08:28:11;;;;;;;24.63;11.48;;;9.30;99.90;;;;;;7386275;19;20006;-78
2024/03/07 08:30:40;;;;;;;29.80;12.40;;;9.40;99.90;;;;;;7404947;19;20026;-78
2024/03/07 08:33:09;;;;;;;24.52;12.38;;;9.40;99.90;;;;;;7385060;19;20010;-78
2024/03/07 08:35:41;;;;;;;23.45;11.60;;;9.50;99.90;;;;;;7384383;19;20018;-79
2024/03/07 08:38:09;;;;;;;24.35;11.93;;;9.60;99.90;;;;;;7383094;19;20074;-77
2024/03/07 08:40:39;;;;;;;30.58;12.35;;;9.60;99.90;;;;;;7382079;19;20034;-77
2024/03/07 08:43:09;;;;;;;22.70;11.52;;;9.70;99.90;;;;;;7381770;19;20090;-77
2024/03/07 08:45:38;;;;;;;29.48;12.50;;;9.80;99.90;;;;;;7404468;19;20010;-74
2024/03/07 08:48:05;;;;;;;21.63;11.18;;;9.80;99.90;;;;;;7382810;19;19999;-75
2024/03/07 08:50:37;;;;;;;22.10;11.07;;;9.90;99.90;;;;;;7382732;19;20747;-79
2024/03/07 08:53:09;;;;;;;23.48;9.60;;;9.90;99.90;;;;;;7382701;19;20019;-78
2024/03/07 08:55:42;;;;;;;;;;;10.00;99.90;;;;;;7386420;19;20027;-80
2024/03/07 08:58:11;;;;;;;25.95;9.38;;;10.10;99.90;;;;;;7388127;19;19942;-79
2024/03/07 09:00:40;;;;;;;23.58;8.98;;;10.10;99.90;;;;;;7404083;19;20010;-73
2024/03/07 09:03:09;;;;;;;19.50;9.77;;;10.10;99.90;;;;;;7380473;19;20071;-75
2024/03/07 09:05:35;;;;;;;23.23;8.80;;;10.20;99.90;;;;;;7381845;19;20002;-76
2024/03/07 09:08:05;;;;;;;20.83;8.85;;;10.20;99.90;;;;;;7382440;19;20011;-76
2024/03/07 09:10:36;;;;;;;23.33;9.00;;;10.30;99.90;;;;;;7380665;19;20266;-75
2024/03/07 09:13:06;;;;;;;21.85;9.63;;;10.30;99.90;;;;;;7404274;19;20076;-75
2024/03/07 09:15:35;;;;;;;21.50;7.88;;;10.30;99.90;;;;;;7382511;19;20003;-77
2024/03/07 09:18:04;;;;;;;19.95;7.97;;;10.40;99.90;;;;;;7389904;19;20003;-76
2024/03/07 09:20:34;;;;;;;22.08;7.32;;;10.40;99.90;;;;;;7392344;19;20030;-77
2024/03/07 09:23:03;;;;;;;15.10;7.40;;;10.50;99.90;;;;;;7390812;19;20033;-76
2024/03/07 09:25:32;;;;;;;15.15;7.53;;;10.50;99.90;;;;;;7390312;19;20014;-75
2024/03/07 09:28:04;;;;;;;15.65;7.45;;;10.50;99.90;;;;;;7412650;19;20373;-76
2024/03/07 09:30:32;;;;;;;15.23;7.03;;;10.50;99.90;;;;;;7391316;19;20350;-76
2024/03/07 09:33:02;;;;;;;16.70;7.82;;;10.60;99.90;;;;;;7390857;19;20031;-77
2024/03/07 09:35:30;;;;;;;14.63;7.18;;;10.60;99.90;;;;;;7383515;19;20010;-77
2024/03/07 09:37:59;;;;;;;20.45;8.25;;;10.70;99.90;;;;;;7383286;19;20421;-75
2024/03/07 09:40:28;;;;;;;17.73;8.95;;;10.70;99.90;;;;;;7379368;19;20028;-76
2024/03/07 09:42:58;;;;;;;24.50;8.55;;;10.70;99.90;;;;;;7399353;19;20026;-76
2024/03/07 09:45:47;;;;;;;20.15;8.55;;;10.70;99.90;;;;;;7382098;19;20019;-80
2024/03/07 09:48:17;;;;;;;19.13;8.35;;;10.80;99.90;;;;;;7383065;19;20010;-76
2024/03/07 09:50:48;;;;;;;18.17;7.85;;;10.90;99.90;;;;;;7383400;19;20003;-78
2024/03/07 09:53:20;;;;;;;16.58;7.03;;;10.90;99.90;;;;;;7384701;19;20020;-80
2024/03/07 09:55:48;;;;;;;;;;;10.90;99.90;;;;;;7384038;19;20018;-76
2024/03/07 09:58:20;;;;;;;14.38;6.50;;;10.90;99.90;;;;;;7383667;19;19917;-73
2024/03/07 10:00:53;;;;;;;15.43;6.55;;;11.00;99.90;;;;;;7402676;19;20023;-74
2024/03/07 10:03:24;;;;;;;17.95;7.07;;;11.00;99.90;;;;;;7378830;19;20495;-75
2024/03/07 10:05:53;;;;;;;23.40;8.40;;;11.00;99.90;;;;;;7380210;19;20026;-75
2024/03/07 10:08:23;;;;;;;26.25;7.88;;;11.10;99.90;;;;;;7380122;19;20103;-76
2024/03/07 10:11:00;;;;;;;18.08;8.43;;;11.10;99.90;;;;;;7383763;19;20002;-80
2024/03/07 10:13:29;;;;;;;26.42;9.57;;;11.20;99.90;;;;;;7382512;19;20115;-74
2024/03/07 10:16:04;;;;;;;24.63;9.85;;;11.20;99.90;;;;;;7399707;19;20338;-75
2024/03/07 10:18:34;;;;;;;22.60;11.10;;;11.20;99.90;;;;;;7379603;19;20223;-75
2024/03/07 10:21:04;;;;;;;28.02;11.10;;;11.10;99.90;;;;;;7379580;19;20070;-77
2024/03/07 10:23:33;;;;;;;21.75;10.48;;;11.20;99.90;;;;;;7378922;19;20007;-76
2024/03/07 10:26:03;;;;;;;24.50;10.40;;;11.20;99.90;;;;;;7380888;19;20016;-77
2024/03/07 10:28:31;;;;;;;25.65;10.95;;;11.30;99.90;;;;;;7379961;19;20033;-76
2024/03/07 10:31:11;;;;;;;21.80;11.40;;;11.30;99.90;;;;;;7404409;19;20014;-80
2024/03/07 10:33:39;;;;;;;27.38;11.38;;;11.30;99.90;;;;;;7383443;19;20070;-79
2024/03/07 10:36:15;;;;;;;21.17;11.25;;;11.40;99.90;;;;;;7382210;19;20023;-76
2024/03/07 10:38:44;;;;;;;25.73;10.55;;;11.40;99.90;;;;;;7380822;19;19999;-76
2024/03/07 10:41:15;;;;;;;26.08;11.50;;;11.50;99.90;;;;;;7379717;19;20007;-78
2024/03/07 10:43:50;;;;;;;26.45;12.18;;;11.50;99.90;;;;;;7378457;19;20033;-73
2024/03/07 10:46:23;;;;;;;32.15;13.52;;;11.50;99.90;;;;;;7379621;19;20027;-75
2024/03/07 10:48:58;;;;;;;33.03;13.55;;;11.50;99.90;;;;;;7403501;19;20007;-74
2024/03/07 10:51:38;;;;;;;33.50;13.90;;;11.60;99.90;;;;;;7378113;19;19998;-74
2024/03/07 10:54:17;;;;;;;30.95;14.05;;;11.60;99.90;;;;;;7380017;19;20019;-79
2024/03/07 10:56:58;;;;;;;34.63;15.57;;;11.60;99.90;;;;;;7379203;19;20006;-76
2024/03/07 10:59:29;;;;;;;34.40;15.70;;;11.70;99.90;;;;;;7379304;19;20011;-74
2024/03/07 11:02:13;;;;;;;35.92;16.13;;;11.70;99.90;;;;;;7378822;19;20013;-76
2024/03/07 11:04:42;;;;;;;36.75;16.10;;;11.70;99.90;;;;;;7379696;19;20066;-78
2024/03/07 11:07:11;;;;;;;34.33;16.42;;;11.70;99.90;;;;;;7396948;19;20030;-74
2024/03/07 11:09:42;;;;;;;37.65;16.85;;;11.70;99.90;;;;;;7399657;19;20011;-76
2024/03/07 11:12:13;;;;;;;39.35;17.48;;;11.80;99.90;;;;;;7377634;19;20007;-75
2024/03/07 11:14:42;;;;;;;41.72;18.08;;;11.80;99.90;;;;;;7378890;19;20009;-77
2024/03/07 11:17:14;;;;;;;40.88;17.02;;;11.80;99.90;;;;;;7378520;19;20373;-78
2024/03/07 11:19:45;;;;;;;39.10;16.80;;;11.90;99.90;;;;;;7380370;19;20026;-72
2024/03/07 11:22:30;;;;;;;36.78;17.70;;;11.90;99.90;;;;;;7378067;19;20003;-74
2024/03/07 11:25:07;;;;;;;41.33;17.05;;;11.90;99.90;;;;;;7399335;19;20010;-73
2024/03/07 11:27:39;;;;;;;42.03;18.30;;;11.90;99.90;;;;;;7376039;19;20373;-73
2024/03/07 11:30:09;;;;;;;42.90;18.33;;;12.00;99.90;;;;;;7377190;19;20086;-76
2024/03/07 11:32:41;;;;;;;38.55;18.52;;;12.00;99.90;;;;;;7380030;19;20007;-78
2024/03/07 11:35:22;;;;;;;43.83;19.27;;;12.10;99.90;;;;;;7379319;19;19999;-80
2024/03/07 11:37:51;;;;;;;37.63;18.17;;;12.10;99.90;;;;;;7378802;19;20002;-77
2024/03/07 11:40:46;;;;;;;43.25;20.45;;;12.10;99.90;;;;;;7377257;19;20449;-79
2024/03/07 11:43:16;;;;;;;41.78;19.80;;;12.20;99.90;;;;;;7379249;19;20009;-78
2024/03/07 11:45:51;;;;;;;44.88;20.42;;;12.20;99.90;;;;;;7403292;19;20038;-79
2024/03/07 11:48:23;;;;;;;41.58;19.23;;;12.40;99.90;;;;;;7378432;19;20218;-77
2024/03/07 11:50:55;;;;;;;40.88;19.55;;;12.40;99.90;;;;;;7379444;19;20025;-78
2024/03/07 11:53:24;;;;;;;37.30;19.27;;;12.50;99.90;;;;;;7380330;19;20003;-78
2024/03/07 11:55:54;;;;;;;47.05;19.95;;;12.60;99.90;;;;;;7378846;19;20293;-77
2024/03/07 11:58:24;;;;;;;42.28;20.70;;;12.60;99.90;;;;;;7377207;19;20006;-77
2024/03/07 12:00:53;;;;;;;41.53;18.55;;;12.70;99.90;;;;;;7398615;19;20006;-76
2024/03/07 12:03:25;;;;;;;38.78;19.40;;;12.70;99.90;;;;;;7375678;19;19999;-76
2024/03/07 12:05:54;;;;;;;43.55;19.77;;;12.70;99.90;;;;;;7376674;19;20007;-76
2024/03/07 12:08:23;;;;;;;47.20;19.02;;;12.80;99.90;;;;;;7377208;19;20002;-77
2024/03/07 12:10:55;;;;;;;43.53;18.42;;;12.80;99.90;;;;;;7377549;19;20015;-77
2024/03/07 12:13:26;;;;;;;38.65;18.67;;;12.80;99.90;;;;;;7378676;19;20054;-78
2024/03/07 12:15:55;;;;;;;46.43;20.43;;;12.80;99.90;;;;;;7399223;19;20015;-76
2024/03/07 12:18:27;;;;;;;46.40;20.65;;;12.90;99.90;;;;;;7379350;19;20223;-75
2024/03/07 12:20:58;;;;;;;40.28;20.02;;;13.00;99.90;;;;;;7389896;19;20365;-75
2024/03/07 12:23:28;;;;;;;39.20;19.10;;;13.10;99.90;;;;;;7388685;19;20017;-73
2024/03/07 12:26:04;;;;;;;43.50;19.13;;;13.10;99.90;;;;;;7387287;19;20046;-74
2024/03/07 12:28:33;;;;;;;40.05;19.65;;;13.20;99.90;;;;;;7387816;19;20066;-74
2024/03/07 12:31:04;;;;;;;39.35;19.05;;;13.10;99.90;;;;;;7408236;19;20018;-74
2024/03/07 12:33:38;;;;;;;35.80;19.20;;;13.20;99.90;;;;;;7379761;19;20034;-75
2024/03/07 12:36:10;;;;;;;46.83;21.65;;;13.20;99.90;;;;;;7376175;19;20017;-73
2024/03/07 12:38:41;;;;;;;37.70;20.60;;;13.20;99.90;;;;;;7376629;19;20020;-75
2024/03/07 12:41:13;;;;;;;45.92;21.15;;;13.20;99.90;;;;;;7383367;19;20002;-75
2024/03/07 12:43:45;;;;;;;41.70;20.98;;;13.20;99.90;;;;;;7383120;19;19996;-76
2024/03/07 12:46:17;;;;;;;41.47;21.60;;;13.20;99.90;;;;;;7405995;19;19999;-77
2024/03/07 12:48:49;;;;;;;42.33;19.13;;;13.20;99.90;;;;;;7381425;19;20007;-76
2024/03/07 12:51:19;;;;;;;41.10;19.90;;;13.30;99.90;;;;;;7380854;19;20086;-75
2024/03/07 12:53:49;;;;;;;42.50;19.83;;;13.30;99.90;;;;;;7380586;19;20007;-76
2024/03/07 12:56:19;;;;;;;44.20;20.33;;;13.40;99.90;;;;;;7382503;19;20003;-75
2024/03/07 12:58:49;;;;;;;36.17;18.83;;;13.40;99.90;;;;;;7382881;19;20002;-75